Time,TemperatureF,DewpointF,PressureIn,WindDirection,WindDirectionDegrees,WindSpeedMPH,WindSpeedGustMPH,Humidity,HourlyPrecipIn,Conditions,Clouds,dailyrainin,SoftwareType,DateUTC
2013-09-24 00:14:00,58.0,55.0,30.08,SE,136,0.0,0.0,90,0.00,,,0.00,,2013-09-24 04:14:00,
2013-09-24 00:24:00,58.0,55.0,30.08,SE,136,0.0,0.0,90,0.00,,,0.00,,2013-09-24 04:24:00,
2013-09-24 00:44:00,58.0,55.0,30.08,SE,136,0.0,0.0,90,0.00,,,0.00,,2013-09-24 04:44:00,
2013-09-24 00:54:00,58.0,55.0,30.07,SE,136,0.0,1.0,90,0.00,,,0.00,,2013-09-24 04:54:00,
2013-09-24 01:13:00,58.0,55.0,30.08,SE,136,0.0,1.0,89,0.00,,,0.00,,2013-09-24 05:13:00,
2013-09-24 01:23:00,58.0,55.0,30.08,SE,136,0.0,1.0,89,0.00,,,0.00,,2013-09-24 05:23:00,
2013-09-24 01:53:00,58.0,55.0,30.08,SE,136,0.0,0.0,89,0.00,,,0.00,,2013-09-24 05:53:00,
2013-09-24 02:13:00,58.0,55.0,30.08,SE,136,0.0,1.0,89,0.00,,,0.00,,2013-09-24 06:13:00,
2013-09-24 02:22:00,58.0,55.0,30.08,SE,136,0.0,3.0,89,0.00,,,0.00,,2013-09-24 06:22:00,
2013-09-24 02:42:00,58.0,54.0,30.08,SE,136,0.0,1.0,88,0.00,,,0.00,,2013-09-24 06:42:00,
2013-09-24 02:52:00,58.0,54.0,30.08,SE,136,0.0,1.0,88,0.00,,,0.00,,2013-09-24 06:52:00,
2013-09-24 03:12:00,58.0,54.0,30.08,SE,137,0.0,1.0,88,0.00,,,0.00,,2013-09-24 07:12:00,
2013-09-24 03:22:00,58.0,54.0,30.07,SE,136,0.0,1.0,88,0.00,,,0.00,,2013-09-24 07:22:00,
2013-09-24 03:43:00,58.0,54.0,30.07,SE,137,0.0,1.0,88,0.00,,,0.00,,2013-09-24 07:43:00,
2013-09-24 03:52:00,58.0,54.0,30.07,SE,136,0.0,2.0,85,0.00,,,0.00,,2013-09-24 07:52:00,
2013-09-24 04:11:00,58.0,53.0,30.07,SE,136,0.0,3.0,82,0.00,,,0.00,,2013-09-24 08:11:00,
2013-09-24 04:23:00,58.0,53.0,30.07,SE,137,0.0,1.0,83,0.00,,,0.00,,2013-09-24 08:23:00,
2013-09-24 04:42:00,58.0,53.0,30.07,SE,137,0.0,4.0,82,0.00,,,0.00,,2013-09-24 08:42:00,
2013-09-24 04:52:00,57.0,52.0,30.06,SE,136,0.0,2.0,83,0.00,,,0.00,,2013-09-24 08:52:00,
2013-09-24 05:12:00,57.0,52.0,30.06,SE,136,0.0,3.0,82,0.00,,,0.00,,2013-09-24 09:12:00,
2013-09-24 05:22:00,56.0,51.0,30.06,SE,136,0.0,0.0,83,0.00,,,0.00,,2013-09-24 09:22:00,
2013-09-24 05:43:00,55.0,51.0,30.06,SE,137,0.0,0.0,85,0.00,,,0.00,,2013-09-24 09:43:00,
2013-09-24 05:53:00,55.0,51.0,30.06,SE,136,0.0,0.0,85,0.00,,,0.00,,2013-09-24 09:53:00,
2013-09-24 06:13:00,55.0,51.0,30.06,SE,136,0.0,2.0,85,0.00,,,0.00,,2013-09-24 10:13:00,
2013-09-24 06:23:00,54.0,51.0,30.06,SE,136,0.0,1.0,90,0.00,,,0.00,,2013-09-24 10:23:00,
2013-09-24 06:42:00,54.0,51.0,30.07,SE,136,0.0,0.0,91,0.00,,,0.00,,2013-09-24 10:42:00,
2013-09-24 06:53:00,54.0,52.0,30.07,SE,137,0.0,0.0,92,0.00,,,0.00,,2013-09-24 10:53:00,
2013-09-24 07:11:00,54.0,52.0,30.07,SE,136,0.0,0.0,93,0.00,,,0.00,,2013-09-24 11:11:00,
2013-09-24 07:22:00,53.0,51.0,30.07,SE,136,0.0,0.0,93,0.00,,,0.00,,2013-09-24 11:22:00,
2013-09-24 07:52:00,53.0,51.0,30.09,SE,136,0.0,0.0,94,0.00,,,0.00,,2013-09-24 11:52:00,
2013-09-24 08:12:00,54.0,52.0,30.09,SE,137,0.0,1.0,94,0.00,,,0.00,,2013-09-24 12:12:00,
2013-09-24 08:22:00,54.0,52.0,30.09,SE,137,0.0,1.0,93,0.00,,,0.00,,2013-09-24 12:22:00,
2013-09-24 08:42:00,55.0,52.0,30.09,SE,136,0.0,1.0,91,0.00,,,0.00,,2013-09-24 12:42:00,
2013-09-24 08:52:00,56.0,53.0,30.08,SE,136,0.0,1.0,89,0.00,,,0.00,,2013-09-24 12:52:00,
2013-09-24 11:53:00,66.0,59.0,30.08,SE,136,0.0,4.0,79,0.00,,,0.00,,2013-09-24 15:53:00,
2013-09-24 12:13:00,65.0,59.0,30.07,SE,136,0.0,3.0,82,0.00,,,0.00,,2013-09-24 16:13:00,
2013-09-24 12:23:00,64.0,59.0,30.07,SE,136,1.0,2.0,84,0.00,,,0.00,,2013-09-24 16:23:00,
2013-09-24 12:43:00,64.0,59.0,30.07,SE,136,0.0,4.0,85,0.00,,,0.00,,2013-09-24 16:43:00,
2013-09-24 12:53:00,63.0,58.0,30.07,SE,136,0.0,3.0,84,0.00,,,0.00,,2013-09-24 16:53:00,
2013-09-24 13:13:00,63.0,59.0,30.06,SE,136,0.0,2.0,86,0.00,,,0.00,,2013-09-24 17:13:00,
2013-09-24 13:23:00,67.0,61.0,30.05,SE,136,0.0,4.0,81,0.00,,,0.00,,2013-09-24 17:23:00,
2013-09-24 13:54:00,68.0,61.0,30.04,SE,136,1.0,3.0,79,0.00,,,0.00,,2013-09-24 17:54:00,
2013-09-24 14:12:00,67.0,61.0,30.04,SE,138,0.0,4.0,81,0.00,,,0.00,,2013-09-24 18:12:00,
2013-09-24 14:22:00,67.0,61.0,30.03,SE,138,0.0,2.0,82,0.00,,,0.00,,2013-09-24 18:22:00,
2013-09-24 14:52:00,69.0,63.0,30.03,SE,138,1.0,4.0,81,0.00,,,0.00,,2013-09-24 18:52:00,
2013-09-24 15:12:00,67.0,60.0,30.02,SE,139,1.0,3.0,78,0.00,,,0.00,,2013-09-24 19:12:00,
2013-09-24 15:22:00,67.0,62.0,30.02,SE,138,0.0,2.0,83,0.00,,,0.00,,2013-09-24 19:22:00,
2013-09-24 15:52:00,67.0,61.0,30.01,SE,138,1.0,2.0,81,0.00,,,0.00,,2013-09-24 19:52:00,
2013-09-24 16:12:00,69.0,62.0,30.01,SE,139,0.0,2.0,78,0.00,,,0.00,,2013-09-24 20:12:00,
2013-09-24 16:22:00,69.0,61.0,30.01,SE,138,0.0,2.0,76,0.00,,,0.00,,2013-09-24 20:22:00,
2013-09-24 16:42:00,67.0,61.0,30.00,SE,139,0.0,1.0,81,0.00,,,0.00,,2013-09-24 20:42:00,
2013-09-24 16:52:00,67.0,61.0,30.00,SE,138,0.0,2.0,81,0.00,,,0.00,,2013-09-24 20:52:00,
2013-09-24 17:12:00,67.0,61.0,29.99,SE,138,0.0,2.0,80,0.00,,,0.00,,2013-09-24 21:12:00,
2013-09-24 17:22:00,66.0,60.0,29.99,SE,139,0.0,1.0,82,0.00,,,0.00,,2013-09-24 21:22:00,
2013-09-24 17:43:00,66.0,60.0,29.99,SE,139,0.0,0.0,81,0.00,,,0.00,,2013-09-24 21:43:00,
2013-09-24 17:54:00,65.0,60.0,29.98,SE,139,0.0,0.0,83,0.00,,,0.00,,2013-09-24 21:54:00,
2013-09-24 18:13:00,64.0,59.0,29.98,SE,138,0.0,1.0,85,0.00,,,0.00,,2013-09-24 22:13:00,
2013-09-24 18:24:00,63.0,59.0,29.99,SE,138,0.0,0.0,87,0.00,,,0.00,,2013-09-24 22:24:00,
2013-09-24 18:53:00,63.0,59.0,29.99,SE,138,0.0,1.0,86,0.00,,,0.00,,2013-09-24 22:53:00,
2013-09-24 19:13:00,63.0,59.0,29.99,SE,138,0.0,1.0,87,0.00,,,0.00,,2013-09-24 23:13:00,
2013-09-24 19:22:00,62.0,58.0,29.98,SE,138,0.0,1.0,88,0.00,,,0.00,,2013-09-24 23:22:00,
2013-09-24 19:53:00,59.0,57.0,29.98,SE,139,0.0,1.0,92,0.00,,,0.00,,2013-09-24 23:53:00,
2013-09-24 20:12:00,59.0,57.0,29.98,SE,138,0.0,1.0,93,0.00,,,0.00,,2013-09-25 00:12:00,
2013-09-24 20:22:00,59.0,57.0,29.99,SE,138,0.0,1.0,94,0.00,,,0.00,,2013-09-25 00:22:00,
2013-09-24 20:42:00,59.0,57.0,29.98,SE,138,0.0,2.0,92,0.00,,,0.00,,2013-09-25 00:42:00,
2013-09-24 20:52:00,59.0,57.0,29.99,SE,138,0.0,1.0,93,0.00,,,0.00,,2013-09-25 00:52:00,
2013-09-24 21:12:00,59.0,57.0,29.99,SE,138,0.0,1.0,93,0.00,,,0.00,,2013-09-25 01:12:00,
2013-09-24 21:21:00,59.0,57.0,29.98,SE,139,0.0,1.0,93,0.00,,,0.00,,2013-09-25 01:21:00,
2013-09-24 21:42:00,59.0,57.0,29.99,SE,138,0.0,1.0,93,0.00,,,0.00,,2013-09-25 01:42:00,
2013-09-24 21:52:00,59.0,57.0,29.99,SE,138,0.0,1.0,93,0.00,,,0.00,,2013-09-25 01:52:00,
2013-09-24 22:12:00,58.0,56.0,29.98,SE,139,0.0,1.0,93,0.00,,,0.00,,2013-09-25 02:12:00,
2013-09-24 22:22:00,58.0,56.0,29.99,SE,139,0.0,1.0,93,0.00,,,0.00,,2013-09-25 02:22:00,
2013-09-24 22:42:00,58.0,56.0,29.99,SE,139,0.0,1.0,93,0.00,,,0.00,,2013-09-25 02:42:00,
2013-09-24 22:52:00,58.0,56.0,29.98,SE,138,0.0,1.0,93,0.00,,,0.00,,2013-09-25 02:52:00,
2013-09-24 23:11:00,58.0,56.0,29.99,SE,139,0.0,1.0,93,0.00,,,0.00,,2013-09-25 03:11:00,
2013-09-24 23:23:00,58.0,56.0,29.98,SE,139,0.0,1.0,93,0.00,,,0.00,,2013-09-25 03:23:00,
2013-09-24 23:45:00,58.0,56.0,29.99,SE,138,0.0,1.0,93,0.00,,,0.00,,2013-09-25 03:45:00,
2013-09-24 23:54:00,58.0,56.0,29.98,SE,138,0.0,1.0,94,0.00,,,0.00,,2013-09-25 03:54:00,